createdAt,value
2022-09-30T00:00:23.591Z,4.27
2022-09-30T00:03:25.516Z,4.23
2022-09-30T00:06:29.744Z,3.70
2022-09-30T00:09:31.675Z,5.80
2022-09-30T00:12:34.210Z,7.77
2022-09-30T00:15:36.096Z,9.10
2022-09-30T00:18:38.997Z,6.13
2022-09-30T00:21:41.252Z,3.70
2022-09-30T00:24:43.205Z,5.47
2022-09-30T00:27:45.353Z,4.20
2022-09-30T00:30:48.637Z,8.37
2022-09-30T00:34:07.279Z,5.17
2022-09-30T00:37:09.497Z,4.27
2022-09-30T00:40:12.364Z,4.17
2022-09-30T00:43:17.245Z,4.30
2022-09-30T00:46:39.765Z,5.43
2022-09-30T00:49:44.424Z,5.10
2022-09-30T00:52:54.027Z,4.83
2022-09-30T00:56:25.154Z,8.13
2022-09-30T00:59:35.629Z,6.20
2022-09-30T01:02:37.943Z,5.30
2022-09-30T01:05:39.978Z,8.03
2022-09-30T01:08:42.001Z,5.50
2022-09-30T01:11:43.899Z,6.10
2022-09-30T01:14:47.640Z,6.17
2022-09-30T01:18:04.300Z,6.07
2022-09-30T01:21:38.659Z,8.63
2022-09-30T01:25:06.265Z,8.27
2022-09-30T01:28:44.358Z,8.13
2022-09-30T01:32:16.029Z,6.43
2022-09-30T01:35:25.758Z,7.17
2022-09-30T01:38:30.738Z,6.67
2022-09-30T01:42:10.478Z,9.53
2022-09-30T01:45:34.043Z,7.60
2022-09-30T01:48:59.211Z,9.50
2022-09-30T01:52:07.020Z,7.37
2022-09-30T01:55:29.148Z,8.47
2022-09-30T01:58:42.755Z,8.83
2022-09-30T02:01:49.277Z,9.33
2022-09-30T02:04:57.809Z,11.07
2022-09-30T02:08:20.465Z,9.97
2022-09-30T02:11:26.324Z,10.77
2022-09-30T02:14:34.006Z,10.77
2022-09-30T02:17:42.331Z,9.00
2022-09-30T02:20:45.722Z,9.83
2022-09-30T02:23:48.106Z,11.50
2022-09-30T02:26:50.278Z,10.27
2022-09-30T02:29:56.832Z,10.20
2022-09-30T02:33:09.123Z,8.37
2022-09-30T02:36:19.472Z,11.13
2022-09-30T02:39:27.969Z,9.37
2022-09-30T02:42:31.119Z,9.80
2022-09-30T02:45:51.420Z,8.93
2022-09-30T02:49:20.991Z,8.93
2022-09-30T02:52:47.685Z,8.40
2022-09-30T02:55:58.665Z,10.50
2022-09-30T02:59:00.812Z,12.80
2022-09-30T03:02:05.601Z,11.07
2022-09-30T03:05:08.040Z,11.30
2022-09-30T03:08:11.262Z,8.77
2022-09-30T03:11:18.751Z,9.77
2022-09-30T03:14:53.261Z,9.23
2022-09-30T03:18:24.487Z,9.00
2022-09-30T03:22:00.028Z,8.77
2022-09-30T03:25:10.737Z,9.23
2022-09-30T03:28:30.197Z,11.20
2022-09-30T03:31:48.858Z,12.90
2022-09-30T03:35:04.408Z,10.30
2022-09-30T03:38:24.721Z,11.30
2022-09-30T03:41:41.814Z,12.70
2022-09-30T03:44:56.181Z,12.00
2022-09-30T03:48:02.146Z,9.70
2022-09-30T03:51:04.682Z,8.60
2022-09-30T03:54:11.776Z,10.70
2022-09-30T03:57:14.573Z,10.87
2022-09-30T04:00:16.647Z,10.33
2022-09-30T04:03:19.924Z,11.00
2022-09-30T04:06:23.627Z,13.63
2022-09-30T04:09:27.760Z,13.00
2022-09-30T04:12:30.425Z,14.10
2022-09-30T04:15:32.390Z,12.37
2022-09-30T04:18:38.612Z,13.50
2022-09-30T04:21:40.716Z,11.13
2022-09-30T04:24:44.281Z,12.07
2022-09-30T04:27:46.127Z,16.13
2022-09-30T04:30:48.065Z,12.00
2022-09-30T04:33:51.125Z,14.53
2022-09-30T04:36:53.159Z,18.67
2022-09-30T04:39:55.052Z,14.33
2022-09-30T04:42:58.708Z,12.23
2022-09-30T04:46:01.286Z,11.67
2022-09-30T04:49:09.097Z,10.83
2022-09-30T04:52:11.363Z,11.47
2022-09-30T04:55:13.358Z,10.23
2022-09-30T04:58:15.643Z,11.87
2022-09-30T05:01:19.520Z,10.33
2022-09-30T05:04:22.171Z,13.40
2022-09-30T05:07:24.529Z,11.47
2022-09-30T05:10:27.287Z,11.60
2022-09-30T05:13:34.837Z,9.90
2022-09-30T05:16:37.587Z,9.50
2022-09-30T05:19:39.561Z,10.60
2022-09-30T05:22:41.602Z,13.03
2022-09-30T05:25:43.609Z,13.10
2022-09-30T05:28:45.518Z,12.03
2022-09-30T05:31:47.863Z,11.60
2022-09-30T05:34:50.414Z,11.97
2022-09-30T05:37:52.319Z,12.97
2022-09-30T05:40:54.765Z,13.63
2022-09-30T05:43:57.242Z,19.90
2022-09-30T05:46:59.988Z,24.30
2022-09-30T05:50:02.057Z,16.93
2022-09-30T05:53:05.103Z,15.40
2022-09-30T05:56:07.994Z,15.23
2022-09-30T05:59:09.987Z,17.83
2022-09-30T06:02:12.405Z,12.23
2022-09-30T06:05:14.689Z,11.77
2022-09-30T06:08:16.833Z,11.90
2022-09-30T06:11:21.842Z,13.50
2022-09-30T06:14:25.405Z,10.77
2022-09-30T06:17:27.347Z,11.50
2022-09-30T06:20:29.305Z,14.07
2022-09-30T06:23:32.564Z,13.00
2022-09-30T06:26:34.482Z,15.87
2022-09-30T06:29:36.308Z,10.93
2022-09-30T06:32:38.623Z,12.90
2022-09-30T06:35:42.798Z,12.73
2022-09-30T06:38:46.047Z,11.13
2022-09-30T06:41:47.949Z,12.30
2022-09-30T06:44:53.464Z,14.37
2022-09-30T06:48:00.929Z,34.87
2022-09-30T06:51:03.448Z,16.73
2022-09-30T06:54:05.688Z,12.07
2022-09-30T06:57:08.281Z,19.73
2022-09-30T07:00:10.849Z,15.23
2022-09-30T07:03:24.142Z,11.80
2022-09-30T07:06:26.633Z,10.07
2022-09-30T07:09:29.031Z,10.80
2022-09-30T07:12:31.003Z,10.67
2022-09-30T07:15:33.149Z,11.30
2022-09-30T07:18:35.121Z,10.60
2022-09-30T07:21:37.302Z,11.90
2022-09-30T07:24:39.247Z,13.23
2022-09-30T07:27:41.830Z,11.30
2022-09-30T07:30:43.933Z,8.93
2022-09-30T07:33:47.151Z,8.17
2022-09-30T07:36:49.668Z,6.90
2022-09-30T07:39:52.289Z,9.30
2022-09-30T07:42:54.355Z,8.40
2022-09-30T07:45:56.484Z,8.73
2022-09-30T07:49:01.785Z,7.23
2022-09-30T07:52:05.426Z,7.67
2022-09-30T07:55:07.881Z,6.13
2022-09-30T07:58:11.339Z,10.00
2022-09-30T08:01:13.924Z,6.80
2022-09-30T08:04:17.736Z,8.13
2022-09-30T08:07:20.178Z,5.20
2022-09-30T08:10:22.497Z,5.17
2022-09-30T08:13:24.369Z,6.27
2022-09-30T08:16:27.121Z,5.37
2022-09-30T08:19:30.908Z,3.90
2022-09-30T08:22:33.365Z,3.60
2022-09-30T08:25:35.693Z,3.73
2022-09-30T08:28:39.086Z,3.10
2022-09-30T08:31:41.982Z,4.23
2022-09-30T08:34:44.742Z,4.47
2022-09-30T08:37:46.891Z,3.57
2022-09-30T08:41:18.403Z,5.07
2022-09-30T08:44:35.379Z,5.17
2022-09-30T08:47:52.808Z,3.87
2022-09-30T08:51:10.512Z,3.33
2022-09-30T08:54:17.594Z,3.80
2022-09-30T08:57:20.691Z,3.33
2022-09-30T09:00:23.530Z,2.67
2022-09-30T09:03:30.658Z,4.53
2022-09-30T09:06:55.350Z,3.30
2022-09-30T09:10:16.758Z,2.90
2022-09-30T09:13:56.172Z,3.13
2022-09-30T09:17:36.620Z,3.67
2022-09-30T09:20:49.561Z,3.20
2022-09-30T09:23:53.797Z,3.10
2022-09-30T09:26:57.933Z,5.60
2022-09-30T09:30:12.078Z,4.47
2022-09-30T09:33:28.087Z,2.97
2022-09-30T09:37:05.580Z,2.53
2022-09-30T09:40:15.390Z,2.17
2022-09-30T09:43:44.100Z,2.47
2022-09-30T09:46:49.815Z,2.10
2022-09-30T09:49:58.469Z,2.13
2022-09-30T09:53:35.092Z,2.40
2022-09-30T09:56:38.094Z,2.40
2022-09-30T10:03:13.194Z,2.60
2022-09-30T10:06:15.147Z,2.70
2022-09-30T10:09:35.281Z,3.00
2022-09-30T10:12:37.382Z,2.47
2022-09-30T10:15:42.866Z,2.37
2022-09-30T10:18:44.965Z,3.10
2022-09-30T10:21:46.894Z,1.77
2022-09-30T10:24:48.855Z,2.23
2022-09-30T10:28:02.064Z,2.40
2022-09-30T10:31:11.577Z,4.67
2022-09-30T10:34:31.719Z,4.53
2022-09-30T10:37:33.938Z,3.43
2022-09-30T10:40:36.108Z,2.70
2022-09-30T10:43:45.564Z,3.97
2022-09-30T10:46:50.878Z,2.10
2022-09-30T10:50:08.209Z,2.67
2022-09-30T10:53:19.959Z,2.10
2022-09-30T10:56:51.287Z,2.27
2022-09-30T11:00:01.017Z,2.07
2022-09-30T11:03:14.432Z,3.83
2022-09-30T11:06:16.662Z,1.97
2022-09-30T11:09:50.756Z,1.57
2022-09-30T11:12:57.633Z,2.43
2022-09-30T11:16:09.225Z,2.10
2022-09-30T11:19:33.782Z,2.50
2022-09-30T11:22:35.791Z,1.97
2022-09-30T11:25:50.338Z,3.50
2022-09-30T11:28:59.079Z,3.77
2022-09-30T11:32:07.648Z,3.30
2022-09-30T11:35:30.927Z,3.03
2022-09-30T11:38:41.763Z,3.27
2022-09-30T11:41:51.058Z,3.47
2022-09-30T11:45:31.987Z,2.77
2022-09-30T11:48:53.369Z,2.87
2022-09-30T11:52:08.510Z,3.13
2022-09-30T11:55:32.202Z,3.53
2022-09-30T11:58:55.154Z,6.83
2022-09-30T12:02:02.480Z,3.33
2022-09-30T12:05:12.528Z,2.47
2022-09-30T12:08:22.856Z,3.57
2022-09-30T12:11:38.990Z,4.43
2022-09-30T12:14:47.482Z,2.83
2022-09-30T12:17:55.468Z,3.40
2022-09-30T12:21:02.699Z,2.97
2022-09-30T12:24:30.028Z,3.10
2022-09-30T12:27:40.628Z,3.00
2022-09-30T12:30:44.698Z,2.87
2022-09-30T12:34:04.888Z,5.27
2022-09-30T12:37:26.443Z,2.40
2022-09-30T12:41:04.417Z,4.23
2022-09-30T12:44:37.851Z,2.60
2022-09-30T12:47:46.473Z,2.83
2022-09-30T12:50:53.199Z,2.50
2022-09-30T12:54:13.536Z,4.13
2022-09-30T12:57:20.233Z,2.30
2022-09-30T13:00:26.390Z,4.07
2022-09-30T13:03:28.393Z,3.33
2022-09-30T13:06:46.120Z,2.60
2022-09-30T13:10:23.282Z,6.73
2022-09-30T13:13:29.058Z,2.50
2022-09-30T13:17:08.960Z,2.87
2022-09-30T13:20:48.088Z,2.30
2022-09-30T13:23:54.801Z,2.77
2022-09-30T13:27:15.899Z,2.10
2022-09-30T13:30:17.792Z,3.40
2022-09-30T13:33:44.645Z,2.50
2022-09-30T13:36:53.111Z,1.90
2022-09-30T13:39:56.860Z,2.43
2022-09-30T13:43:00.574Z,1.83
2022-09-30T13:46:43.286Z,2.17
2022-09-30T13:50:23.503Z,2.10
2022-09-30T13:53:32.441Z,2.00
2022-09-30T13:56:36.788Z,2.13
2022-09-30T14:00:11.244Z,2.37
2022-09-30T14:03:20.630Z,4.80
2022-09-30T14:06:45.583Z,2.30
2022-09-30T14:09:59.345Z,5.63
2022-09-30T14:13:28.769Z,2.57
2022-09-30T14:16:37.323Z,4.30
2022-09-30T14:19:58.632Z,2.60
2022-09-30T14:23:00.668Z,3.77
2022-09-30T14:26:15.881Z,3.90
2022-09-30T14:29:48.651Z,2.97
2022-09-30T14:33:03.145Z,2.53
2022-09-30T14:36:13.394Z,5.97
2022-09-30T14:39:21.578Z,5.43
2022-09-30T14:42:39.109Z,6.40
2022-09-30T14:45:46.149Z,11.70
2022-09-30T14:48:50.991Z,4.20
2022-09-30T14:51:53.392Z,4.33
2022-09-30T14:54:55.356Z,4.17
2022-09-30T14:58:22.179Z,3.77
2022-09-30T15:01:26.340Z,3.67
2022-09-30T15:04:36.640Z,5.57
2022-09-30T15:07:41.071Z,3.20
2022-09-30T15:10:52.238Z,3.50
2022-09-30T15:14:18.290Z,3.37
2022-09-30T15:17:35.582Z,3.77
2022-09-30T15:20:38.105Z,3.73
2022-09-30T15:23:43.571Z,2.70
2022-09-30T15:26:47.999Z,2.70
2022-09-30T15:30:01.100Z,4.17
2022-09-30T15:33:05.274Z,4.53
2022-09-30T15:36:18.657Z,3.00
2022-09-30T15:39:25.423Z,3.07
2022-09-30T15:42:37.645Z,2.83
2022-09-30T15:45:41.970Z,2.80
2022-09-30T15:48:47.118Z,4.10
2022-09-30T15:51:49.130Z,2.80
2022-09-30T15:54:51.088Z,4.07
2022-09-30T15:57:53.273Z,3.23
2022-09-30T16:01:21.691Z,4.87
2022-09-30T16:04:26.658Z,2.57
2022-09-30T16:07:29.768Z,7.53
2022-09-30T16:10:31.927Z,3.57
2022-09-30T16:13:35.248Z,5.33
2022-09-30T16:16:38.552Z,3.83
2022-09-30T16:19:40.562Z,5.47
2022-09-30T16:22:42.577Z,4.33
2022-09-30T16:25:47.855Z,5.00
2022-09-30T16:28:51.522Z,5.07
2022-09-30T16:31:57.364Z,4.17
2022-09-30T16:35:00.073Z,8.73
2022-09-30T16:38:06.536Z,6.03
2022-09-30T16:41:14.418Z,4.17
2022-09-30T16:44:16.397Z,5.53
2022-09-30T16:47:21.928Z,2.60
2022-09-30T16:50:23.958Z,5.37
2022-09-30T16:53:26.820Z,1.90
2022-09-30T16:56:28.835Z,2.80
2022-09-30T16:59:33.402Z,3.90
2022-09-30T17:02:35.358Z,3.30
2022-09-30T17:05:40.158Z,3.40
2022-09-30T17:08:42.007Z,5.13
2022-09-30T17:11:44.401Z,5.23
2022-09-30T17:14:46.691Z,3.10
2022-09-30T17:17:49.323Z,3.37
2022-09-30T17:20:53.270Z,2.50
2022-09-30T17:23:55.857Z,3.80
2022-09-30T17:26:58.797Z,3.93
2022-09-30T17:30:01.549Z,4.13
2022-09-30T17:33:03.600Z,5.07
2022-09-30T17:36:07.938Z,4.63
2022-09-30T17:39:11.621Z,5.03
2022-09-30T17:42:33.131Z,2.37
2022-09-30T17:45:35.798Z,2.87
2022-09-30T17:48:40.345Z,2.67
2022-09-30T17:51:42.299Z,2.60
2022-09-30T17:54:46.645Z,3.87
2022-09-30T17:57:53.768Z,3.50
2022-09-30T18:00:58.686Z,5.23
2022-09-30T18:04:01.303Z,3.90
2022-09-30T18:07:03.540Z,6.77
2022-09-30T18:10:05.907Z,2.23
2022-09-30T18:13:07.909Z,3.63
2022-09-30T18:16:11.476Z,6.83
2022-09-30T18:19:15.509Z,5.63
2022-09-30T18:22:17.491Z,2.93
2022-09-30T18:25:23.142Z,2.97
2022-09-30T18:28:25.757Z,4.73
2022-09-30T18:31:38.538Z,2.60
2022-09-30T18:34:40.937Z,3.13
2022-09-30T18:37:43.498Z,5.40
2022-09-30T18:40:45.927Z,4.30
2022-09-30T18:43:51.010Z,3.43
2022-09-30T18:46:55.652Z,4.47
2022-09-30T18:49:57.972Z,4.37
2022-09-30T18:53:06.822Z,2.40
2022-09-30T18:56:11.517Z,2.20
2022-09-30T18:59:18.325Z,3.10
2022-09-30T19:02:22.641Z,2.67
2022-09-30T19:05:24.613Z,2.80
2022-09-30T19:08:27.694Z,2.47
2022-09-30T19:11:31.021Z,3.13
2022-09-30T19:14:35.228Z,3.30
2022-09-30T19:17:37.673Z,2.40
2022-09-30T19:20:40.377Z,2.50
2022-09-30T19:23:42.538Z,2.90
2022-09-30T19:26:46.982Z,2.63
2022-09-30T19:29:50.367Z,4.87
2022-09-30T19:33:04.013Z,2.77
2022-09-30T19:36:14.866Z,5.50
2022-09-30T19:39:17.157Z,2.87
2022-09-30T19:42:19.157Z,3.03
2022-09-30T19:45:26.151Z,4.00
2022-09-30T19:48:30.076Z,4.87
2022-09-30T19:51:33.612Z,3.37
2022-09-30T19:54:41.550Z,2.73
2022-09-30T19:57:44.171Z,3.30
2022-09-30T20:00:53.592Z,3.73
2022-09-30T20:04:00.327Z,2.53
2022-09-30T20:07:02.400Z,2.83
2022-09-30T20:10:04.984Z,2.53
2022-09-30T20:13:06.807Z,4.03
2022-09-30T20:16:13.703Z,2.50
2022-09-30T20:19:19.912Z,2.90
2022-09-30T20:22:27.243Z,5.00
2022-09-30T20:25:31.477Z,5.33
2022-09-30T20:28:33.638Z,3.00
2022-09-30T20:31:41.207Z,3.83
2022-09-30T20:34:43.312Z,3.23
2022-09-30T20:37:45.170Z,2.50
2022-09-30T20:40:47.118Z,3.47
2022-09-30T20:43:52.213Z,2.50
2022-09-30T20:46:54.212Z,5.53
2022-09-30T20:49:56.327Z,4.00
2022-09-30T20:52:58.540Z,3.03
2022-09-30T20:56:01.377Z,2.37
2022-09-30T20:59:03.973Z,4.47
2022-09-30T21:02:07.352Z,4.67
2022-09-30T21:05:09.447Z,6.07
2022-09-30T21:08:11.284Z,3.00
2022-09-30T21:11:14.624Z,4.47
2022-09-30T21:14:20.355Z,3.10
2022-09-30T21:17:22.373Z,3.33
2022-09-30T21:20:24.368Z,4.47
2022-09-30T21:23:27.373Z,4.80
2022-09-30T21:26:30.209Z,3.93
2022-09-30T21:29:33.433Z,4.43
2022-09-30T21:32:35.628Z,4.40
2022-09-30T21:35:38.413Z,3.83
2022-09-30T21:38:40.629Z,3.87
2022-09-30T21:41:43.308Z,2.73
2022-09-30T21:44:45.854Z,4.37
2022-09-30T21:47:48.348Z,7.33
2022-09-30T21:50:50.990Z,3.40
2022-09-30T21:53:55.258Z,6.47
2022-09-30T21:56:57.693Z,3.30
2022-09-30T21:59:59.892Z,7.87
2022-09-30T22:03:02.276Z,4.53
2022-09-30T22:06:10.077Z,7.43
2022-09-30T22:09:12.072Z,4.50
2022-09-30T22:12:14.421Z,3.43
2022-09-30T22:15:17.598Z,3.97
2022-09-30T22:18:22.232Z,3.87
2022-09-30T22:21:24.471Z,2.40
2022-09-30T22:24:27.738Z,2.50
2022-09-30T22:27:32.995Z,2.43
2022-09-30T22:30:38.013Z,1.90
2022-09-30T22:33:58.861Z,3.03
2022-09-30T22:37:19.658Z,2.00
2022-09-30T22:40:21.666Z,3.50
2022-09-30T22:43:27.480Z,2.40
2022-09-30T22:46:30.147Z,3.23
2022-09-30T22:49:34.871Z,3.27
2022-09-30T22:52:36.750Z,2.80
2022-09-30T22:55:38.770Z,2.77
2022-09-30T22:58:40.636Z,3.17
2022-09-30T23:01:44.217Z,3.23
2022-09-30T23:04:47.051Z,3.60
2022-09-30T23:07:49.111Z,3.70
2022-09-30T23:10:52.221Z,2.90
2022-09-30T23:13:58.845Z,3.47
2022-09-30T23:17:01.093Z,4.27
2022-09-30T23:20:03.168Z,7.63
2022-09-30T23:23:05.148Z,3.33
2022-09-30T23:26:11.136Z,4.13
2022-09-30T23:29:13.878Z,5.60
2022-09-30T23:32:15.921Z,4.00
2022-09-30T23:35:17.975Z,4.73
2022-09-30T23:38:20.364Z,3.77
2022-09-30T23:41:22.311Z,3.43
2022-09-30T23:44:25.140Z,4.27
2022-09-30T23:47:27.630Z,3.20
2022-09-30T23:50:30.234Z,4.30
2022-09-30T23:53:33.701Z,4.67
2022-09-30T23:56:35.685Z,3.07
2022-09-30T23:59:38.822Z,3.03
